sensor_id;sensor_type;location;lat;lon;timestamp;temperature;humidity
65598;SHT31;52267;51.984;20.956;2022-11-02T00:01:17;11.48;92.30
65598;SHT31;52267;51.984;20.956;2022-11-02T00:03:46;11.48;92.32
65598;SHT31;52267;51.984;20.956;2022-11-02T00:06:13;11.48;92.36
65598;SHT31;52267;51.984;20.956;2022-11-02T00:08:40;11.46;92.40
65598;SHT31;52267;51.984;20.956;2022-11-02T00:11:06;11.44;92.48
65598;SHT31;52267;51.984;20.956;2022-11-02T00:13:34;11.43;92.42
65598;SHT31;52267;51.984;20.956;2022-11-02T00:16:01;11.43;92.41
65598;SHT31;52267;51.984;20.956;2022-11-02T00:18:28;11.41;92.43
65598;SHT31;52267;51.984;20.956;2022-11-02T00:20:54;11.40;92.36
65598;SHT31;52267;51.984;20.956;2022-11-02T00:23:21;11.40;92.41
65598;SHT31;52267;51.984;20.956;2022-11-02T00:25:47;11.40;92.45
65598;SHT31;52267;51.984;20.956;2022-11-02T00:28:15;11.37;92.46
65598;SHT31;52267;51.984;20.956;2022-11-02T00:30:42;11.34;92.40
65598;SHT31;52267;51.984;20.956;2022-11-02T00:33:08;11.31;92.43
65598;SHT31;52267;51.984;20.956;2022-11-02T00:35:35;11.29;92.39
65598;SHT31;52267;51.984;20.956;2022-11-02T00:38:02;11.29;92.41
65598;SHT31;52267;51.984;20.956;2022-11-02T00:40:28;11.30;92.40
65598;SHT31;52267;51.984;20.956;2022-11-02T00:42:54;11.30;92.40
65598;SHT31;52267;51.984;20.956;2022-11-02T00:45:21;11.29;92.37
65598;SHT31;52267;51.984;20.956;2022-11-02T00:47:48;11.29;92.35
65598;SHT31;52267;51.984;20.956;2022-11-02T00:50:15;11.27;92.38
65598;SHT31;52267;51.984;20.956;2022-11-02T00:52:41;11.27;92.40
65598;SHT31;52267;51.984;20.956;2022-11-02T00:55:08;11.27;92.40
65598;SHT31;52267;51.984;20.956;2022-11-02T00:57:38;11.28;92.36
65598;SHT31;52267;51.984;20.956;2022-11-02T01:00:06;11.27;92.35
65598;SHT31;52267;51.984;20.956;2022-11-02T01:02:33;11.27;92.38
65598;SHT31;52267;51.984;20.956;2022-11-02T01:04:59;11.25;92.36
65598;SHT31;52267;51.984;20.956;2022-11-02T01:07:26;11.26;92.40
65598;SHT31;52267;51.984;20.956;2022-11-02T01:09:52;11.26;92.32
65598;SHT31;52267;51.984;20.956;2022-11-02T01:12:19;11.28;92.38
65598;SHT31;52267;51.984;20.956;2022-11-02T01:14:45;11.29;92.34
65598;SHT31;52267;51.984;20.956;2022-11-02T01:17:12;11.28;92.38
65598;SHT31;52267;51.984;20.956;2022-11-02T01:19:39;11.26;92.40
65598;SHT31;52267;51.984;20.956;2022-11-02T01:22:06;11.26;92.42
65598;SHT31;52267;51.984;20.956;2022-11-02T01:24:32;11.24;92.41
65598;SHT31;52267;51.984;20.956;2022-11-02T01:26:58;11.24;92.42
65598;SHT31;52267;51.984;20.956;2022-11-02T01:29:24;11.26;92.41
65598;SHT31;52267;51.984;20.956;2022-11-02T01:31:51;11.27;92.42
65598;SHT31;52267;51.984;20.956;2022-11-02T01:34:18;11.27;92.44
65598;SHT31;52267;51.984;20.956;2022-11-02T01:36:45;11.28;92.43
65598;SHT31;52267;51.984;20.956;2022-11-02T01:39:13;11.29;92.40
65598;SHT31;52267;51.984;20.956;2022-11-02T01:41:40;11.27;92.41
65598;SHT31;52267;51.984;20.956;2022-11-02T01:47:06;11.29;92.44
65598;SHT31;52267;51.984;20.956;2022-11-02T01:49:35;11.29;92.43
65598;SHT31;52267;51.984;20.956;2022-11-02T01:52:07;11.28;92.49
65598;SHT31;52267;51.984;20.956;2022-11-02T01:54:44;11.27;92.50
65598;SHT31;52267;51.984;20.956;2022-11-02T01:57:22;11.27;92.46
65598;SHT31;52267;51.984;20.956;2022-11-02T01:59:53;11.24;92.49
65598;SHT31;52267;51.984;20.956;2022-11-02T02:02:36;11.23;92.44
65598;SHT31;52267;51.984;20.956;2022-11-02T02:05:13;11.23;92.47
65598;SHT31;52267;51.984;20.956;2022-11-02T02:07:40;11.22;92.49
65598;SHT31;52267;51.984;20.956;2022-11-02T02:10:07;11.21;92.47
65598;SHT31;52267;51.984;20.956;2022-11-02T02:12:33;11.20;92.46
65598;SHT31;52267;51.984;20.956;2022-11-02T02:15:01;11.19;92.36
65598;SHT31;52267;51.984;20.956;2022-11-02T02:17:38;11.19;92.31
65598;SHT31;52267;51.984;20.956;2022-11-02T02:26:09;11.19;92.59
65598;SHT31;52267;51.984;20.956;2022-11-02T02:29:02;11.20;92.79
65598;SHT31;52267;51.984;20.956;2022-11-02T02:31:52;11.23;92.80
65598;SHT31;52267;51.984;20.956;2022-11-02T02:34:42;11.26;92.81
65598;SHT31;52267;51.984;20.956;2022-11-02T02:37:12;11.27;92.88
65598;SHT31;52267;51.984;20.956;2022-11-02T02:39:46;11.28;92.89
65598;SHT31;52267;51.984;20.956;2022-11-02T02:42:27;11.31;92.90
65598;SHT31;52267;51.984;20.956;2022-11-02T02:47:32;11.35;92.97
65598;SHT31;52267;51.984;20.956;2022-11-02T02:50:07;11.37;93.00
65598;SHT31;52267;51.984;20.956;2022-11-02T02:52:41;11.39;92.99
65598;SHT31;52267;51.984;20.956;2022-11-02T02:55:11;11.42;93.00
65598;SHT31;52267;51.984;20.956;2022-11-02T02:57:40;11.45;92.99
65598;SHT31;52267;51.984;20.956;2022-11-02T03:00:13;11.47;93.01
65598;SHT31;52267;51.984;20.956;2022-11-02T03:02:41;11.49;93.04
65598;SHT31;52267;51.984;20.956;2022-11-02T03:05:23;11.52;93.09
65598;SHT31;52267;51.984;20.956;2022-11-02T03:07:51;11.55;92.99
65598;SHT31;52267;51.984;20.956;2022-11-02T03:11:00;11.56;92.92
65598;SHT31;52267;51.984;20.956;2022-11-02T03:13:34;11.56;92.61
65598;SHT31;52267;51.984;20.956;2022-11-02T03:16:55;11.58;92.66
65598;SHT31;52267;51.984;20.956;2022-11-02T03:19:22;11.60;92.56
65598;SHT31;52267;51.984;20.956;2022-11-02T03:22:10;11.63;92.67
65598;SHT31;52267;51.984;20.956;2022-11-02T03:24:57;11.66;92.74
65598;SHT31;52267;51.984;20.956;2022-11-02T03:27:37;11.68;92.95
65598;SHT31;52267;51.984;20.956;2022-11-02T03:32:47;11.72;92.81
65598;SHT31;52267;51.984;20.956;2022-11-02T03:35:35;11.75;92.74
65598;SHT31;52267;51.984;20.956;2022-11-02T03:38:18;11.78;93.05
65598;SHT31;52267;51.984;20.956;2022-11-02T03:40:51;11.80;93.10
65598;SHT31;52267;51.984;20.956;2022-11-02T03:43:17;11.83;93.10
65598;SHT31;52267;51.984;20.956;2022-11-02T03:45:48;11.85;93.13
65598;SHT31;52267;51.984;20.956;2022-11-02T03:48:16;11.86;93.19
65598;SHT31;52267;51.984;20.956;2022-11-02T03:50:44;11.87;93.17
65598;SHT31;52267;51.984;20.956;2022-11-02T03:55:52;11.89;93.18
65598;SHT31;52267;51.984;20.956;2022-11-02T03:58:20;11.91;93.24
65598;SHT31;52267;51.984;20.956;2022-11-02T04:00:48;11.93;93.30
65598;SHT31;52267;51.984;20.956;2022-11-02T04:03:18;11.94;93.19
65598;SHT31;52267;51.984;20.956;2022-11-02T04:05:45;11.95;93.10
65598;SHT31;52267;51.984;20.956;2022-11-02T04:08:11;11.97;93.01
65598;SHT31;52267;51.984;20.956;2022-11-02T04:10:50;11.98;92.95
65598;SHT31;52267;51.984;20.956;2022-11-02T04:13:35;11.97;93.01
65598;SHT31;52267;51.984;20.956;2022-11-02T04:16:21;11.98;93.09
65598;SHT31;52267;51.984;20.956;2022-11-02T04:18:47;12.00;93.10
65598;SHT31;52267;51.984;20.956;2022-11-02T04:21:32;12.00;93.23
65598;SHT31;52267;51.984;20.956;2022-11-02T04:23:58;12.00;93.26
65598;SHT31;52267;51.984;20.956;2022-11-02T04:26:43;12.01;93.05
65598;SHT31;52267;51.984;20.956;2022-11-02T04:29:09;12.03;93.14
65598;SHT31;52267;51.984;20.956;2022-11-02T04:31:35;12.03;93.10
65598;SHT31;52267;51.984;20.956;2022-11-02T04:34:01;12.03;93.10
65598;SHT31;52267;51.984;20.956;2022-11-02T04:36:28;12.04;93.32
65598;SHT31;52267;51.984;20.956;2022-11-02T04:38:55;12.05;93.47
65598;SHT31;52267;51.984;20.956;2022-11-02T04:41:22;12.06;93.41
65598;SHT31;52267;51.984;20.956;2022-11-02T04:44:07;12.08;93.27
65598;SHT31;52267;51.984;20.956;2022-11-02T04:46:38;12.09;93.41
65598;SHT31;52267;51.984;20.956;2022-11-02T04:49:05;12.08;93.44
65598;SHT31;52267;51.984;20.956;2022-11-02T04:51:31;12.10;93.44
65598;SHT31;52267;51.984;20.956;2022-11-02T04:53:58;12.11;93.44
65598;SHT31;52267;51.984;20.956;2022-11-02T04:56:25;12.14;93.51
65598;SHT31;52267;51.984;20.956;2022-11-02T04:58:52;12.15;93.52
65598;SHT31;52267;51.984;20.956;2022-11-02T05:01:20;12.16;93.60
65598;SHT31;52267;51.984;20.956;2022-11-02T05:03:47;12.19;93.57
65598;SHT31;52267;51.984;20.956;2022-11-02T05:06:15;12.20;93.70
65598;SHT31;52267;51.984;20.956;2022-11-02T05:08:45;12.20;93.58
65598;SHT31;52267;51.984;20.956;2022-11-02T05:11:11;12.21;93.59
65598;SHT31;52267;51.984;20.956;2022-11-02T05:13:38;12.22;93.46
65598;SHT31;52267;51.984;20.956;2022-11-02T05:16:05;12.23;93.52
65598;SHT31;52267;51.984;20.956;2022-11-02T05:18:32;12.24;93.41
65598;SHT31;52267;51.984;20.956;2022-11-02T05:20:59;12.24;93.41
65598;SHT31;52267;51.984;20.956;2022-11-02T05:23:26;12.24;93.42
65598;SHT31;52267;51.984;20.956;2022-11-02T05:25:57;12.26;93.28
65598;SHT31;52267;51.984;20.956;2022-11-02T05:28:25;12.27;93.38
65598;SHT31;52267;51.984;20.956;2022-11-02T05:30:51;12.28;93.39
65598;SHT31;52267;51.984;20.956;2022-11-02T05:33:18;12.30;93.60
65598;SHT31;52267;51.984;20.956;2022-11-02T05:35:45;12.30;93.53
65598;SHT31;52267;51.984;20.956;2022-11-02T05:38:11;12.32;93.56
65598;SHT31;52267;51.984;20.956;2022-11-02T05:40:38;12.32;93.52
65598;SHT31;52267;51.984;20.956;2022-11-02T05:43:08;12.33;93.62
65598;SHT31;52267;51.984;20.956;2022-11-02T05:45:35;12.36;93.67
65598;SHT31;52267;51.984;20.956;2022-11-02T05:48:02;12.37;93.64
65598;SHT31;52267;51.984;20.956;2022-11-02T05:50:31;12.38;93.65
65598;SHT31;52267;51.984;20.956;2022-11-02T05:52:57;12.39;93.60
65598;SHT31;52267;51.984;20.956;2022-11-02T05:55:23;12.41;93.70
65598;SHT31;52267;51.984;20.956;2022-11-02T05:57:53;12.43;93.70
65598;SHT31;52267;51.984;20.956;2022-11-02T06:00:21;12.44;93.72
65598;SHT31;52267;51.984;20.956;2022-11-02T06:02:52;12.46;93.72
65598;SHT31;52267;51.984;20.956;2022-11-02T06:05:21;12.47;93.74
65598;SHT31;52267;51.984;20.956;2022-11-02T06:07:47;12.49;93.74
65598;SHT31;52267;51.984;20.956;2022-11-02T06:10:13;12.51;93.70
65598;SHT31;52267;51.984;20.956;2022-11-02T06:12:39;12.53;93.66
65598;SHT31;52267;51.984;20.956;2022-11-02T06:15:05;12.53;93.66
65598;SHT31;52267;51.984;20.956;2022-11-02T06:17:36;12.57;93.69
65598;SHT31;52267;51.984;20.956;2022-11-02T06:20:03;12.58;93.62
65598;SHT31;52267;51.984;20.956;2022-11-02T06:22:30;12.60;93.59
65598;SHT31;52267;51.984;20.956;2022-11-02T06:24:56;12.61;93.58
65598;SHT31;52267;51.984;20.956;2022-11-02T06:27:22;12.61;93.59
65598;SHT31;52267;51.984;20.956;2022-11-02T06:29:49;12.63;93.60
65598;SHT31;52267;51.984;20.956;2022-11-02T06:32:15;12.65;93.59
65598;SHT31;52267;51.984;20.956;2022-11-02T06:34:41;12.67;93.58
65598;SHT31;52267;51.984;20.956;2022-11-02T06:37:07;12.68;93.54
65598;SHT31;52267;51.984;20.956;2022-11-02T06:39:34;12.69;93.58
65598;SHT31;52267;51.984;20.956;2022-11-02T06:42:00;12.69;93.54
65598;SHT31;52267;51.984;20.956;2022-11-02T06:44:26;12.70;93.56
65598;SHT31;52267;51.984;20.956;2022-11-02T06:46:52;12.71;93.57
65598;SHT31;52267;51.984;20.956;2022-11-02T06:49:18;12.73;93.57
65598;SHT31;52267;51.984;20.956;2022-11-02T06:51:45;12.74;93.50
65598;SHT31;52267;51.984;20.956;2022-11-02T06:54:11;12.74;93.47
65598;SHT31;52267;51.984;20.956;2022-11-02T06:56:38;12.75;93.42
65598;SHT31;52267;51.984;20.956;2022-11-02T06:59:05;12.76;93.39
65598;SHT31;52267;51.984;20.956;2022-11-02T07:01:31;12.77;93.35
65598;SHT31;52267;51.984;20.956;2022-11-02T07:03:57;12.76;93.27
65598;SHT31;52267;51.984;20.956;2022-11-02T07:06:23;12.74;93.28
65598;SHT31;52267;51.984;20.956;2022-11-02T07:08:49;12.75;93.31
65598;SHT31;52267;51.984;20.956;2022-11-02T07:11:16;12.74;93.27
65598;SHT31;52267;51.984;20.956;2022-11-02T07:13:42;12.75;93.27
65598;SHT31;52267;51.984;20.956;2022-11-02T07:16:08;12.77;93.21
65598;SHT31;52267;51.984;20.956;2022-11-02T07:18:35;12.77;93.19
65598;SHT31;52267;51.984;20.956;2022-11-02T07:21:01;12.75;93.20
65598;SHT31;52267;51.984;20.956;2022-11-02T07:23:28;12.75;93.14
65598;SHT31;52267;51.984;20.956;2022-11-02T07:25:54;12.75;93.20
65598;SHT31;52267;51.984;20.956;2022-11-02T07:28:20;12.74;93.20
65598;SHT31;52267;51.984;20.956;2022-11-02T07:30:47;12.75;93.20
65598;SHT31;52267;51.984;20.956;2022-11-02T07:33:13;12.79;93.17
65598;SHT31;52267;51.984;20.956;2022-11-02T07:35:39;12.80;93.10
65598;SHT31;52267;51.984;20.956;2022-11-02T07:38:07;12.84;93.10
65598;SHT31;52267;51.984;20.956;2022-11-02T07:40:34;12.86;93.07
65598;SHT31;52267;51.984;20.956;2022-11-02T07:43:02;12.89;92.98
65598;SHT31;52267;51.984;20.956;2022-11-02T07:45:29;12.93;92.94
65598;SHT31;52267;51.984;20.956;2022-11-02T07:47:55;12.95;92.84
65598;SHT31;52267;51.984;20.956;2022-11-02T07:50:22;12.98;92.79
65598;SHT31;52267;51.984;20.956;2022-11-02T07:52:50;13.02;92.71
65598;SHT31;52267;51.984;20.956;2022-11-02T07:55:19;13.04;92.66
65598;SHT31;52267;51.984;20.956;2022-11-02T07:58:05;13.08;92.70
65598;SHT31;52267;51.984;20.956;2022-11-02T08:00:35;13.09;92.70
65598;SHT31;52267;51.984;20.956;2022-11-02T08:03:05;13.12;92.70
65598;SHT31;52267;51.984;20.956;2022-11-02T08:05:33;13.14;92.70
65598;SHT31;52267;51.984;20.956;2022-11-02T08:08:01;13.14;92.61
65598;SHT31;52267;51.984;20.956;2022-11-02T08:10:28;13.13;92.60
65598;SHT31;52267;51.984;20.956;2022-11-02T08:12:56;13.12;92.60
65598;SHT31;52267;51.984;20.956;2022-11-02T08:15:23;13.14;92.60
65598;SHT31;52267;51.984;20.956;2022-11-02T08:18:02;13.15;92.56
65598;SHT31;52267;51.984;20.956;2022-11-02T08:20:30;13.17;92.51
65598;SHT31;52267;51.984;20.956;2022-11-02T08:22:57;13.19;92.50
65598;SHT31;52267;51.984;20.956;2022-11-02T08:25:23;13.21;92.49
65598;SHT31;52267;51.984;20.956;2022-11-02T08:27:50;13.24;92.41
65598;SHT31;52267;51.984;20.956;2022-11-02T08:30:16;13.24;92.40
65598;SHT31;52267;51.984;20.956;2022-11-02T08:32:43;13.27;92.36
65598;SHT31;52267;51.984;20.956;2022-11-02T08:35:09;13.28;92.30
65598;SHT31;52267;51.984;20.956;2022-11-02T08:37:36;13.31;92.26
65598;SHT31;52267;51.984;20.956;2022-11-02T08:40:02;13.33;92.20
65598;SHT31;52267;51.984;20.956;2022-11-02T08:42:29;13.37;92.11
65598;SHT31;52267;51.984;20.956;2022-11-02T08:44:55;13.41;92.12
65598;SHT31;52267;51.984;20.956;2022-11-02T08:47:21;13.45;92.04
65598;SHT31;52267;51.984;20.956;2022-11-02T08:49:49;13.49;91.92
65598;SHT31;52267;51.984;20.956;2022-11-02T08:52:17;13.51;91.89
65598;SHT31;52267;51.984;20.956;2022-11-02T08:54:43;13.53;91.82
65598;SHT31;52267;51.984;20.956;2022-11-02T08:57:09;13.56;91.77
65598;SHT31;52267;51.984;20.956;2022-11-02T08:59:36;13.61;91.72
65598;SHT31;52267;51.984;20.956;2022-11-02T09:02:02;13.65;91.63
65598;SHT31;52267;51.984;20.956;2022-11-02T09:04:29;13.69;91.59
65598;SHT31;52267;51.984;20.956;2022-11-02T09:06:55;13.75;91.48
65598;SHT31;52267;51.984;20.956;2022-11-02T09:09:21;13.81;91.40
65598;SHT31;52267;51.984;20.956;2022-11-02T09:11:48;13.86;91.37
65598;SHT31;52267;51.984;20.956;2022-11-02T09:14:15;13.90;91.24
65598;SHT31;52267;51.984;20.956;2022-11-02T09:16:41;13.96;91.06
65598;SHT31;52267;51.984;20.956;2022-11-02T09:19:08;14.02;90.69
65598;SHT31;52267;51.984;20.956;2022-11-02T09:21:34;14.08;90.73
65598;SHT31;52267;51.984;20.956;2022-11-02T09:24:00;14.13;90.61
65598;SHT31;52267;51.984;20.956;2022-11-02T09:26:27;14.22;90.51
65598;SHT31;52267;51.984;20.956;2022-11-02T09:28:53;14.33;90.49
65598;SHT31;52267;51.984;20.956;2022-11-02T09:31:19;14.42;90.29
65598;SHT31;52267;51.984;20.956;2022-11-02T09:33:46;14.45;89.93
65598;SHT31;52267;51.984;20.956;2022-11-02T09:36:12;14.50;89.75
65598;SHT31;52267;51.984;20.956;2022-11-02T09:38:38;14.54;89.54
65598;SHT31;52267;51.984;20.956;2022-11-02T09:41:20;14.54;89.07
65598;SHT31;52267;51.984;20.956;2022-11-02T09:44:27;14.57;88.89
65598;SHT31;52267;51.984;20.956;2022-11-02T09:46:49;14.61;88.36
65598;SHT31;52267;51.984;20.956;2022-11-02T09:49:20;14.64;87.92
65598;SHT31;52267;51.984;20.956;2022-11-02T09:54:19;14.73;87.95
65598;SHT31;52267;51.984;20.956;2022-11-02T09:56:47;14.77;87.83
65598;SHT31;52267;51.984;20.956;2022-11-02T09:59:15;14.84;87.71
65598;SHT31;52267;51.984;20.956;2022-11-02T10:01:46;14.88;87.27
65598;SHT31;52267;51.984;20.956;2022-11-02T10:09:36;15.11;87.29
65598;SHT31;52267;51.984;20.956;2022-11-02T10:12:11;15.17;87.06
65598;SHT31;52267;51.984;20.956;2022-11-02T10:15:04;15.21;87.19
65598;SHT31;52267;51.984;20.956;2022-11-02T10:17:35;15.29;87.25
65598;SHT31;52267;51.984;20.956;2022-11-02T10:20:04;15.37;87.21
65598;SHT31;52267;51.984;20.956;2022-11-02T10:22:44;15.42;86.94
65598;SHT31;52267;51.984;20.956;2022-11-02T10:25:13;15.46;86.10
65598;SHT31;52267;51.984;20.956;2022-11-02T10:27:41;15.57;86.21
65598;SHT31;52267;51.984;20.956;2022-11-02T10:30:10;15.71;85.91
65598;SHT31;52267;51.984;20.956;2022-11-02T10:32:40;15.79;85.84
65598;SHT31;52267;51.984;20.956;2022-11-02T10:35:17;15.88;85.81
65598;SHT31;52267;51.984;20.956;2022-11-02T10:38:01;15.97;85.38
65598;SHT31;52267;51.984;20.956;2022-11-02T10:46:07;16.18;84.35
65598;SHT31;52267;51.984;20.956;2022-11-02T10:48:58;16.28;84.17
65598;SHT31;52267;51.984;20.956;2022-11-02T10:51:29;16.41;84.28
65598;SHT31;52267;51.984;20.956;2022-11-02T10:53:55;16.45;82.94
65598;SHT31;52267;51.984;20.956;2022-11-02T10:56:23;16.35;82.34
65598;SHT31;52267;51.984;20.956;2022-11-02T11:01:34;16.19;81.01
65598;SHT31;52267;51.984;20.956;2022-11-02T11:04:02;16.16;80.27
65598;SHT31;52267;51.984;20.956;2022-11-02T11:06:30;16.13;79.67
65598;SHT31;52267;51.984;20.956;2022-11-02T11:09:04;16.17;80.84
65598;SHT31;52267;51.984;20.956;2022-11-02T11:11:34;16.22;80.31
65598;SHT31;52267;51.984;20.956;2022-11-02T11:16:45;16.21;81.03
65598;SHT31;52267;51.984;20.956;2022-11-02T11:19:26;16.23;80.35
65598;SHT31;52267;51.984;20.956;2022-11-02T11:21:54;16.19;79.91
65598;SHT31;52267;51.984;20.956;2022-11-02T11:24:28;16.22;80.30
65598;SHT31;52267;51.984;20.956;2022-11-02T11:29:37;16.42;80.33
65598;SHT31;52267;51.984;20.956;2022-11-02T11:32:11;16.45;79.47
65598;SHT31;52267;51.984;20.956;2022-11-02T11:34:52;16.43;78.74
65598;SHT31;52267;51.984;20.956;2022-11-02T11:37:21;16.39;79.40
65598;SHT31;52267;51.984;20.956;2022-11-02T11:39:49;16.32;79.60
65598;SHT31;52267;51.984;20.956;2022-11-02T11:42:19;16.21;79.85
65598;SHT31;52267;51.984;20.956;2022-11-02T11:44:54;16.13;80.32
65598;SHT31;52267;51.984;20.956;2022-11-02T11:47:23;16.04;80.24
65598;SHT31;52267;51.984;20.956;2022-11-02T11:49:51;16.08;80.22
65598;SHT31;52267;51.984;20.956;2022-11-02T11:52:23;16.16;80.85
65598;SHT31;52267;51.984;20.956;2022-11-02T11:54:53;16.20;80.74
65598;SHT31;52267;51.984;20.956;2022-11-02T11:57:25;16.20;80.06
65598;SHT31;52267;51.984;20.956;2022-11-02T11:59:54;16.19;79.71
65598;SHT31;52267;51.984;20.956;2022-11-02T12:02:27;16.10;79.49
65598;SHT31;52267;51.984;20.956;2022-11-02T12:04:59;16.07;79.51
65598;SHT31;52267;51.984;20.956;2022-11-02T12:07:47;16.09;78.66
65598;SHT31;52267;51.984;20.956;2022-11-02T12:10:49;16.19;78.50
65598;SHT31;52267;51.984;20.956;2022-11-02T12:13:18;16.33;78.53
65598;SHT31;52267;51.984;20.956;2022-11-02T12:22:07;16.73;77.65
65598;SHT31;52267;51.984;20.956;2022-11-02T12:30:11;16.86;75.32
65598;SHT31;52267;51.984;20.956;2022-11-02T12:49:12;16.81;75.92
65598;SHT31;52267;51.984;20.956;2022-11-02T12:54:44;16.72;76.27
65598;SHT31;52267;51.984;20.956;2022-11-02T12:57:14;16.72;76.45
65598;SHT31;52267;51.984;20.956;2022-11-02T12:59:43;16.69;76.46
65598;SHT31;52267;51.984;20.956;2022-11-02T13:02:15;16.66;76.91
65598;SHT31;52267;51.984;20.956;2022-11-02T13:04:51;16.64;76.09
65598;SHT31;52267;51.984;20.956;2022-11-02T13:10:29;16.62;77.11
65598;SHT31;52267;51.984;20.956;2022-11-02T13:12:58;16.55;77.14
65598;SHT31;52267;51.984;20.956;2022-11-02T13:15:26;16.50;76.68
65598;SHT31;52267;51.984;20.956;2022-11-02T13:18:03;16.43;77.15
65598;SHT31;52267;51.984;20.956;2022-11-02T13:21:15;16.35;77.26
65598;SHT31;52267;51.984;20.956;2022-11-02T13:23:36;16.28;78.03
65598;SHT31;52267;51.984;20.956;2022-11-02T13:26:06;16.22;77.59
65598;SHT31;52267;51.984;20.956;2022-11-02T13:31:43;16.12;77.96
65598;SHT31;52267;51.984;20.956;2022-11-02T13:34:13;16.07;77.90
65598;SHT31;52267;51.984;20.956;2022-11-02T13:36:42;16.03;78.23
65598;SHT31;52267;51.984;20.956;2022-11-02T13:39:22;15.98;78.57
65598;SHT31;52267;51.984;20.956;2022-11-02T13:42:08;15.91;78.22
65598;SHT31;52267;51.984;20.956;2022-11-02T13:50:17;15.72;78.60
65598;SHT31;52267;51.984;20.956;2022-11-02T13:52:46;15.69;78.42
65598;SHT31;52267;51.984;20.956;2022-11-02T13:55:19;15.68;78.96
65598;SHT31;52267;51.984;20.956;2022-11-02T13:57:56;15.65;78.82
65598;SHT31;52267;51.984;20.956;2022-11-02T14:05:28;15.56;78.89
65598;SHT31;52267;51.984;20.956;2022-11-02T14:08:01;15.51;79.18
65598;SHT31;52267;51.984;20.956;2022-11-02T14:10:30;15.46;79.39
65598;SHT31;52267;51.984;20.956;2022-11-02T14:13:01;15.41;79.15
65598;SHT31;52267;51.984;20.956;2022-11-02T14:18:08;15.34;79.12
65598;SHT31;52267;51.984;20.956;2022-11-02T14:20:43;15.28;78.89
65598;SHT31;52267;51.984;20.956;2022-11-02T14:28:28;15.07;79.30
65598;SHT31;52267;51.984;20.956;2022-11-02T14:30:59;14.99;78.83
65598;SHT31;52267;51.984;20.956;2022-11-02T14:38:50;14.80;79.33
65598;SHT31;52267;51.984;20.956;2022-11-02T14:49:32;14.52;79.75
65598;SHT31;52267;51.984;20.956;2022-11-02T14:52:03;14.48;80.01
65598;SHT31;52267;51.984;20.956;2022-11-02T14:54:33;14.46;80.18
65598;SHT31;52267;51.984;20.956;2022-11-02T15:00:19;14.39;80.42
65598;SHT31;52267;51.984;20.956;2022-11-02T15:02:50;14.37;80.52
65598;SHT31;52267;51.984;20.956;2022-11-02T15:05:33;14.34;80.66
65598;SHT31;52267;51.984;20.956;2022-11-02T15:08:05;14.31;80.82
65598;SHT31;52267;51.984;20.956;2022-11-02T15:10:34;14.27;81.01
65598;SHT31;52267;51.984;20.956;2022-11-02T15:16:36;14.19;81.41
65598;SHT31;52267;51.984;20.956;2022-11-02T15:18:40;14.12;81.55
65598;SHT31;52267;51.984;20.956;2022-11-02T15:23:41;13.98;81.88
65598;SHT31;52267;51.984;20.956;2022-11-02T15:26:10;13.90;82.02
65598;SHT31;52267;51.984;20.956;2022-11-02T15:28:39;13.79;82.13
65598;SHT31;52267;51.984;20.956;2022-11-02T15:31:18;13.65;82.20
65598;SHT31;52267;51.984;20.956;2022-11-02T15:33:50;13.51;82.19
65598;SHT31;52267;51.984;20.956;2022-11-02T15:38:55;13.27;82.55
65598;SHT31;52267;51.984;20.956;2022-11-02T15:41:27;13.16;82.64
65598;SHT31;52267;51.984;20.956;2022-11-02T15:44:03;13.06;82.67
65598;SHT31;52267;51.984;20.956;2022-11-02T15:47:02;12.85;83.35
65598;SHT31;52267;51.984;20.956;2022-11-02T15:58:27;12.31;83.47
65598;SHT31;52267;51.984;20.956;2022-11-02T16:01:02;12.17;83.73
65598;SHT31;52267;51.984;20.956;2022-11-02T16:03:50;12.04;83.70
65598;SHT31;52267;51.984;20.956;2022-11-02T16:08:50;11.78;83.69
65598;SHT31;52267;51.984;20.956;2022-11-02T16:11:17;11.64;84.08
65598;SHT31;52267;51.984;20.956;2022-11-02T16:13:45;11.55;83.96
65598;SHT31;52267;51.984;20.956;2022-11-02T16:16:15;11.44;83.79
65598;SHT31;52267;51.984;20.956;2022-11-02T16:18:43;11.34;83.77
65598;SHT31;52267;51.984;20.956;2022-11-02T16:21:16;11.24;84.03
65598;SHT31;52267;51.984;20.956;2022-11-02T16:23:48;11.14;84.25
65598;SHT31;52267;51.984;20.956;2022-11-02T16:26:19;11.02;84.37
65598;SHT31;52267;51.984;20.956;2022-11-02T16:28:48;10.93;84.39
65598;SHT31;52267;51.984;20.956;2022-11-02T16:31:20;10.85;84.39
65598;SHT31;52267;51.984;20.956;2022-11-02T16:33:49;10.79;84.40
65598;SHT31;52267;51.984;20.956;2022-11-02T16:36:19;10.73;84.31
65598;SHT31;52267;51.984;20.956;2022-11-02T16:39:00;10.64;84.40
65598;SHT31;52267;51.984;20.956;2022-11-02T16:41:29;10.56;84.60
65598;SHT31;52267;51.984;20.956;2022-11-02T16:43:57;10.48;84.65
65598;SHT31;52267;51.984;20.956;2022-11-02T16:46:30;10.40;84.87
65598;SHT31;52267;51.984;20.956;2022-11-02T16:51:48;10.24;84.86
65598;SHT31;52267;51.984;20.956;2022-11-02T16:54:17;10.20;84.82
65598;SHT31;52267;51.984;20.956;2022-11-02T16:56:50;10.13;84.69
65598;SHT31;52267;51.984;20.956;2022-11-02T16:59:17;10.04;84.71
65598;SHT31;52267;51.984;20.956;2022-11-02T17:01:44;9.97;84.95
65598;SHT31;52267;51.984;20.956;2022-11-02T17:04:21;9.88;85.10
65598;SHT31;52267;51.984;20.956;2022-11-02T17:06:49;9.80;85.22
65598;SHT31;52267;51.984;20.956;2022-11-02T17:09:24;9.71;85.40
65598;SHT31;52267;51.984;20.956;2022-11-02T17:11:53;9.65;85.57
65598;SHT31;52267;51.984;20.956;2022-11-02T17:14:22;9.60;85.61
65598;SHT31;52267;51.984;20.956;2022-11-02T17:17:00;9.60;85.72
65598;SHT31;52267;51.984;20.956;2022-11-02T17:19:52;9.64;85.87
65598;SHT31;52267;51.984;20.956;2022-11-02T17:22:57;9.71;85.90
65598;SHT31;52267;51.984;20.956;2022-11-02T17:28:00;9.77;86.19
65598;SHT31;52267;51.984;20.956;2022-11-02T17:30:46;9.77;86.22
65598;SHT31;52267;51.984;20.956;2022-11-02T17:33:24;9.75;86.21
65598;SHT31;52267;51.984;20.956;2022-11-02T17:35:52;9.74;86.32
65598;SHT31;52267;51.984;20.956;2022-11-02T17:38:22;9.68;86.36
65598;SHT31;52267;51.984;20.956;2022-11-02T17:40:50;9.61;86.48
65598;SHT31;52267;51.984;20.956;2022-11-02T17:43:18;9.55;86.57
65598;SHT31;52267;51.984;20.956;2022-11-02T17:45:45;9.50;86.61
65598;SHT31;52267;51.984;20.956;2022-11-02T17:48:11;9.46;86.57
65598;SHT31;52267;51.984;20.956;2022-11-02T17:50:38;9.41;86.40
65598;SHT31;52267;51.984;20.956;2022-11-02T17:53:05;9.42;86.39
65598;SHT31;52267;51.984;20.956;2022-11-02T17:55:36;9.47;86.35